Time,TemperatureF,DewpointF,PressureIn,WindDirection,WindDirectionDegrees,WindSpeedMPH,WindSpeedGustMPH,Humidity,HourlyPrecipIn,Conditions,Clouds,dailyrainin,SoftwareType,DateUTC
2013-02-22 00:04:00,52.0,49.4,29.76,ESE,112,2.6,2.6,91,0.00,,,0.00,VWS V14.01,2013-02-21 22:04:00,
2013-02-22 00:09:00,52.5,49.9,29.75,ESE,112,9.8,9.8,91,0.00,,,0.00,VWS V14.01,2013-02-21 22:09:00,
2013-02-22 00:14:00,52.9,50.3,29.74,ESE,112,7.8,7.8,91,0.00,,,0.00,VWS V14.01,2013-02-21 22:14:00,
2013-02-22 00:19:00,53.2,50.9,29.73,ESE,112,5.5,5.5,92,0.00,,,0.00,VWS V14.01,2013-02-21 22:19:00,
2013-02-22 00:24:00,53.2,50.9,29.74,ESE,112,4.4,5.5,92,0.00,,,0.00,VWS V14.01,2013-02-21 22:24:00,
2013-02-22 00:29:00,53.4,51.1,29.74,ESE,112,5.1,5.1,92,0.00,,,0.00,VWS V14.01,2013-02-21 22:29:00,
2013-02-22 00:34:00,53.4,51.1,29.74,ESE,112,3.5,3.5,92,0.00,,,0.00,VWS V14.01,2013-02-21 22:34:00,
2013-02-22 00:39:00,53.6,51.3,29.74,SE,135,4.0,4.0,92,0.00,,,0.00,VWS V14.01,2013-02-21 22:39:00,
2013-02-22 00:44:00,53.6,51.3,29.74,SE,135,0.6,0.6,92,0.00,,,0.00,VWS V14.01,2013-02-21 22:44:00,
2013-02-22 00:49:00,53.6,51.3,29.74,SE,135,0.0,0.0,92,0.00,,,0.00,VWS V14.01,2013-02-21 22:49:00,
2013-02-22 00:54:00,53.6,51.3,29.74,SE,135,0.0,2.4,92,0.00,,,0.00,VWS V14.01,2013-02-21 22:54:00,
2013-02-22 00:59:00,53.6,51.3,29.73,SSE,158,3.1,3.1,92,0.00,,,0.00,VWS V14.01,2013-02-21 22:59:00,
2013-02-22 01:04:00,53.6,51.3,29.73,SSE,158,2.9,2.9,92,0.00,,,0.00,VWS V14.01,2013-02-21 23:04:00,
2013-02-22 01:10:00,53.6,51.3,29.73,SSE,158,2.0,2.0,92,0.00,,,0.00,VWS V14.01,2013-02-21 23:10:00,
2013-02-22 01:15:00,53.6,51.3,29.72,SSE,158,2.2,2.2,92,0.00,,,0.00,VWS V14.01,2013-02-21 23:15:00,
2013-02-22 01:20:00,53.6,51.3,29.72,SSE,158,2.2,2.2,92,0.00,,,0.00,VWS V14.01,2013-02-21 23:20:00,
2013-02-22 01:25:00,53.6,51.3,29.71,SE,135,4.2,4.2,92,0.00,,,0.00,VWS V14.01,2013-02-21 23:25:00,
2013-02-22 01:30:00,53.8,51.5,29.71,SE,135,0.6,0.6,92,0.00,,,0.00,VWS V14.01,2013-02-21 23:30:00,
2013-02-22 01:35:00,53.8,51.5,29.71,SE,135,0.0,0.0,92,0.00,,,0.00,VWS V14.01,2013-02-21 23:35:00,
2013-02-22 01:40:00,53.6,51.3,29.71,SE,135,0.0,0.0,92,0.00,,,0.00,VWS V14.01,2013-02-21 23:40:00,
2013-02-22 01:45:00,53.6,51.3,29.71,SE,135,0.0,0.0,92,0.00,,,0.00,VWS V14.01,2013-02-21 23:45:00,
2013-02-22 01:50:00,53.6,51.3,29.71,SE,135,0.0,0.0,92,0.00,,,0.00,VWS V14.01,2013-02-21 23:50:00,
2013-02-22 01:55:00,53.6,51.3,29.70,SE,135,0.0,0.0,92,0.00,,,0.00,VWS V14.01,2013-02-21 23:55:00,
2013-02-22 02:00:00,53.6,51.3,29.70,SE,135,0.0,0.0,92,0.00,,,0.00,VWS V14.01,2013-02-22 00:00:00,
2013-02-22 02:05:00,53.6,51.3,29.70,SE,135,0.0,0.0,92,0.00,,,0.00,VWS V14.01,2013-02-22 00:05:00,
2013-02-22 02:10:00,53.8,51.5,29.70,SE,135,4.9,4.9,92,0.00,,,0.00,VWS V14.01,2013-02-22 00:10:00,
2013-02-22 02:15:00,54.1,51.8,29.70,SE,135,0.0,0.0,92,0.00,,,0.00,VWS V14.01,2013-02-22 00:15:00,
2013-02-22 02:23:00,54.1,51.8,29.70,SE,135,1.7,1.7,92,0.00,,,0.00,VWS V14.01,2013-02-22 00:23:00,
2013-02-22 02:28:00,54.3,52.0,29.69,ESE,112,7.1,7.1,92,0.00,,,0.00,VWS V14.01,2013-02-22 00:28:00,
2013-02-22 02:33:00,54.3,51.7,29.68,SE,135,4.2,4.2,91,0.00,,,0.00,VWS V14.01,2013-02-22 00:33:00,
2013-02-22 02:38:00,54.3,51.7,29.68,ESE,112,3.1,3.1,91,0.00,,,0.00,VWS V14.01,2013-02-22 00:38:00,
2013-02-22 02:43:00,54.3,51.7,29.68,ESE,112,1.7,1.7,91,0.00,,,0.00,VWS V14.01,2013-02-22 00:43:00,
2013-02-22 02:48:00,54.3,51.7,29.68,SSE,158,2.0,2.0,91,0.00,,,0.00,VWS V14.01,2013-02-22 00:48:00,
2013-02-22 02:53:00,54.3,51.7,29.67,SE,135,2.4,2.4,91,0.00,,,0.00,VWS V14.01,2013-02-22 00:53:00,
2013-02-22 02:58:00,54.3,51.7,29.67,ESE,112,7.1,7.1,91,0.00,,,0.00,VWS V14.01,2013-02-22 00:58:00,
2013-02-22 03:03:00,54.3,51.7,29.66,SE,135,5.8,5.8,91,0.02,,,0.02,VWS V14.01,2013-02-22 01:03:00,
2013-02-22 03:08:00,54.3,51.7,29.66,ESE,112,0.0,0.0,91,0.02,,,0.02,VWS V14.01,2013-02-22 01:08:00,
2013-02-22 03:13:00,54.3,51.4,29.66,ESE,112,3.1,3.1,90,0.02,,,0.02,VWS V14.01,2013-02-22 01:13:00,
2013-02-22 03:19:00,54.3,51.4,29.65,SE,135,6.7,7.8,90,0.02,,,0.02,VWS V14.01,2013-02-22 01:19:00,
2013-02-22 03:24:00,54.5,51.6,29.65,SE,135,4.4,4.4,90,0.02,,,0.02,VWS V14.01,2013-02-22 01:24:00,
2013-02-22 03:29:00,54.5,51.6,29.65,ESE,112,4.2,4.2,90,0.02,,,0.02,VWS V14.01,2013-02-22 01:29:00,
2013-02-22 03:34:00,54.5,51.6,29.65,ENE,68,4.9,4.9,90,0.02,,,0.02,VWS V14.01,2013-02-22 01:34:00,
2013-02-22 03:39:00,54.5,51.6,29.65,ESE,112,3.8,3.8,90,0.02,,,0.02,VWS V14.01,2013-02-22 01:39:00,
2013-02-22 03:44:00,54.5,51.6,29.64,ESE,112,2.9,2.9,90,0.02,,,0.02,VWS V14.01,2013-02-22 01:44:00,
2013-02-22 03:49:00,54.5,51.6,29.64,ESE,112,7.1,7.1,90,0.02,,,0.02,VWS V14.01,2013-02-22 01:49:00,
2013-02-22 03:54:00,54.7,51.8,29.63,ESE,112,4.6,4.6,90,0.02,,,0.02,VWS V14.01,2013-02-22 01:54:00,
2013-02-22 03:59:00,54.7,51.8,29.63,ESE,112,3.3,3.3,90,0.00,,,0.02,VWS V14.01,2013-02-22 01:59:00,
2013-02-22 04:04:00,54.5,51.3,29.63,ESE,112,3.5,3.5,89,0.00,,,0.02,VWS V14.01,2013-02-22 02:04:00,
2013-02-22 04:09:00,54.5,51.3,29.63,ESE,112,3.5,3.5,89,0.00,,,0.02,VWS V14.01,2013-02-22 02:09:00,
2013-02-22 04:14:00,54.7,51.5,29.63,ESE,112,5.5,5.5,89,0.00,,,0.02,VWS V14.01,2013-02-22 02:14:00,
2013-02-22 04:19:00,54.7,51.5,29.63,SE,135,0.0,0.0,89,0.00,,,0.02,VWS V14.01,2013-02-22 02:19:00,
2013-02-22 04:24:00,54.5,51.6,29.63,ESE,112,8.5,8.5,90,0.00,,,0.02,VWS V14.01,2013-02-22 02:24:00,
2013-02-22 04:29:00,54.5,51.6,29.63,ESE,112,6.7,6.7,90,0.00,,,0.02,VWS V14.01,2013-02-22 02:29:00,
2013-02-22 04:34:00,54.5,51.6,29.62,ESE,112,5.5,5.8,90,0.00,,,0.02,VWS V14.01,2013-02-22 02:34:00,
2013-02-22 04:39:00,54.5,51.6,29.62,ESE,112,5.5,6.7,90,0.00,,,0.02,VWS V14.01,2013-02-22 02:39:00,
2013-02-22 04:45:00,54.5,51.6,29.62,ESE,112,0.0,0.0,90,0.00,,,0.02,VWS V14.01,2013-02-22 02:45:00,
2013-02-22 04:50:00,54.3,51.4,29.63,ESE,112,0.0,0.0,90,0.00,,,0.02,VWS V14.01,2013-02-22 02:50:00,
2013-02-22 04:55:00,54.1,51.2,29.63,ESE,112,0.0,0.0,90,0.00,,,0.02,VWS V14.01,2013-02-22 02:55:00,
2013-02-22 05:00:00,54.1,51.2,29.63,ESE,112,0.0,0.0,90,0.00,,,0.02,VWS V14.01,2013-02-22 03:00:00,
2013-02-22 05:05:00,54.1,51.2,29.63,ESE,112,0.0,0.0,90,0.00,,,0.02,VWS V14.01,2013-02-22 03:05:00,
2013-02-22 05:10:00,54.0,51.1,29.63,ENE,68,0.0,0.0,90,0.00,,,0.02,VWS V14.01,2013-02-22 03:10:00,
2013-02-22 05:15:00,53.1,50.2,29.63,NNW,338,6.4,8.5,90,0.00,,,0.02,VWS V14.01,2013-02-22 03:15:00,
2013-02-22 05:20:00,52.0,48.8,29.63,NW,315,6.0,8.5,89,0.00,,,0.02,VWS V14.01,2013-02-22 03:20:00,
2013-02-22 05:25:00,51.4,47.9,29.63,WNW,292,6.2,9.1,88,0.00,,,0.02,VWS V14.01,2013-02-22 03:25:00,
2013-02-22 05:30:00,51.3,47.8,29.63,WNW,292,4.4,4.9,88,0.00,,,0.02,VWS V14.01,2013-02-22 03:30:00,
2013-02-22 05:35:00,51.3,47.8,29.63,NW,315,8.2,8.2,88,0.00,,,0.02,VWS V14.01,2013-02-22 03:35:00,
2013-02-22 05:40:00,51.1,47.6,29.63,WNW,292,3.3,3.3,88,0.02,,,0.04,VWS V14.01,2013-02-22 03:40:00,
2013-02-22 05:45:00,50.9,47.4,29.63,NNW,338,0.0,0.0,88,0.02,,,0.04,VWS V14.01,2013-02-22 03:45:00,
2013-02-22 05:50:00,50.9,47.7,29.63,NNW,338,8.5,8.5,89,0.02,,,0.04,VWS V14.01,2013-02-22 03:50:00,
2013-02-22 05:55:00,50.9,47.7,29.63,NNW,338,6.7,7.1,89,0.04,,,0.06,VWS V14.01,2013-02-22 03:55:00,
2013-02-22 06:00:00,50.5,47.6,29.62,NNW,338,5.8,5.8,90,0.04,,,0.06,VWS V14.01,2013-02-22 04:00:00,
2013-02-22 06:06:00,50.2,47.3,29.62,NW,315,10.5,10.5,90,0.06,,,0.08,VWS V14.01,2013-02-22 04:06:00,
2013-02-22 06:11:00,50.2,47.3,29.62,WNW,292,2.2,7.3,90,0.06,,,0.08,VWS V14.01,2013-02-22 04:11:00,
2013-02-22 06:16:00,50.0,47.4,29.61,NW,315,8.2,8.2,91,0.06,,,0.08,VWS V14.01,2013-02-22 04:16:00,
2013-02-22 06:21:00,50.0,47.4,29.60,WSW,248,6.7,8.9,91,0.08,,,0.10,VWS V14.01,2013-02-22 04:21:00,
2013-02-22 06:26:00,50.0,47.4,29.62,SW,225,6.0,9.3,91,0.08,,,0.10,VWS V14.01,2013-02-22 04:26:00,
2013-02-22 06:31:00,50.0,47.4,29.62,WSW,248,0.0,4.4,91,0.10,,,0.12,VWS V14.01,2013-02-22 04:31:00,
2013-02-22 06:36:00,50.2,47.6,29.61,NW,315,7.8,7.8,91,0.16,,,0.18,VWS V14.01,2013-02-22 04:36:00,
2013-02-22 06:41:00,50.2,47.6,29.61,WNW,292,6.9,6.9,91,0.19,,,0.22,VWS V14.01,2013-02-22 04:41:00,
2013-02-22 06:46:00,50.2,47.9,29.61,West,270,4.0,4.0,92,0.19,,,0.22,VWS V14.01,2013-02-22 04:46:00,
2013-02-22 06:51:00,50.2,47.9,29.61,West,270,0.0,0.0,92,0.20,,,0.24,VWS V14.01,2013-02-22 04:51:00,
2013-02-22 06:56:00,50.2,47.9,29.61,WNW,292,4.9,4.9,92,0.19,,,0.24,VWS V14.01,2013-02-22 04:56:00,
2013-02-22 07:00:00,50.4,48.1,29.61,WNW,292,3.3,3.3,92,0.19,,,0.24,VWS V14.01,2013-02-22 05:00:00,
2013-02-22 07:02:00,50.4,48.1,29.61,WNW,292,5.1,5.1,92,0.19,,,0.24,VWS V14.01,2013-02-22 05:02:00,
2013-02-22 07:03:00,50.5,48.2,29.61,WNW,292,1.7,5.1,92,0.19,,,0.24,VWS V14.01,2013-02-22 05:03:00,
2013-02-22 07:08:00,50.5,48.2,29.62,NNW,338,7.1,7.1,92,0.19,,,0.26,VWS V14.01,2013-02-22 05:08:00,
2013-02-22 07:13:00,50.7,48.4,29.61,NW,315,14.0,14.0,92,0.19,,,0.26,VWS V14.01,2013-02-22 05:13:00,
2013-02-22 07:18:00,50.5,48.2,29.62,North,0,3.3,3.3,92,0.20,,,0.28,VWS V14.01,2013-02-22 05:18:00,
2013-02-22 07:23:00,50.5,48.2,29.62,NNW,338,10.5,10.5,92,0.20,,,0.30,VWS V14.01,2013-02-22 05:23:00,
2013-02-22 07:28:00,50.2,47.9,29.61,North,0,8.7,9.6,92,0.26,,,0.37,VWS V14.01,2013-02-22 05:28:00,
2013-02-22 07:34:00,49.6,47.3,29.62,NNW,338,16.5,16.5,92,0.29,,,0.43,VWS V14.01,2013-02-22 05:34:00,
2013-02-22 07:39:00,48.9,46.6,29.63,North,0,4.2,10.2,92,0.31,,,0.49,VWS V14.01,2013-02-22 05:39:00,
2013-02-22 07:44:00,48.4,46.2,29.62,North,0,0.2,5.1,92,0.35,,,0.57,VWS V14.01,2013-02-22 05:44:00,
2013-02-22 07:49:00,47.8,45.3,29.63,North,0,10.5,13.4,91,0.51,,,0.73,VWS V14.01,2013-02-22 05:49:00,
2013-02-22 07:54:00,47.3,44.8,29.62,WNW,292,8.7,8.7,91,0.59,,,0.83,VWS V14.01,2013-02-22 05:54:00,
2013-02-22 07:59:00,47.3,44.8,29.62,NW,315,0.0,0.0,91,0.61,,,0.85,VWS V14.01,2013-02-22 05:59:00,
2013-02-22 08:04:00,47.1,44.9,29.62,WNW,292,4.0,4.0,92,0.61,,,0.85,VWS V14.01,2013-02-22 06:04:00,
2013-02-22 08:09:00,47.3,45.1,29.61,NNW,338,7.8,7.8,92,0.59,,,0.85,VWS V14.01,2013-02-22 06:09:00,
2013-02-22 08:14:00,47.5,45.3,29.61,NNW,338,0.0,1.1,92,0.59,,,0.85,VWS V14.01,2013-02-22 06:14:00,
2013-02-22 08:19:00,47.7,45.5,29.62,West,270,4.9,4.9,92,0.57,,,0.85,VWS V14.01,2013-02-22 06:19:00,
2013-02-22 08:24:00,47.8,45.5,29.62,West,270,0.0,0.0,92,0.55,,,0.85,VWS V14.01,2013-02-22 06:24:00,
2013-02-22 08:30:00,48.4,46.2,29.61,WNW,292,0.0,2.9,92,0.49,,,0.85,VWS V14.01,2013-02-22 06:30:00,
2013-02-22 08:35:00,48.4,46.2,29.61,WNW,292,3.8,3.8,92,0.43,,,0.85,VWS V14.01,2013-02-22 06:35:00,
2013-02-22 08:40:00,48.7,46.5,29.62,WNW,292,0.0,0.0,92,0.37,,,0.85,VWS V14.01,2013-02-22 06:40:00,
2013-02-22 08:45:00,49.3,47.0,29.62,NNW,338,7.1,7.1,92,0.28,,,0.85,VWS V14.01,2013-02-22 06:45:00,
2013-02-22 08:50:00,49.6,47.3,29.60,NNW,338,14.5,16.1,92,0.14,,,0.87,VWS V14.01,2013-02-22 06:50:00,
2013-02-22 08:55:00,49.6,47.3,29.61,North,0,0.0,1.7,92,0.04,,,0.87,VWS V14.01,2013-02-22 06:55:00,
2013-02-22 09:00:00,49.6,47.3,29.61,NE,45,8.2,8.2,92,0.06,,,0.92,VWS V14.01,2013-02-22 07:00:00,
2013-02-22 09:05:00,49.1,46.8,29.61,NW,315,8.0,8.0,92,0.15,,,1.00,VWS V14.01,2013-02-22 07:05:00,
2013-02-22 09:10:00,48.2,45.7,29.60,NNW,338,11.8,11.8,91,0.35,,,1.20,VWS V14.01,2013-02-22 07:10:00,
2013-02-22 09:15:00,47.8,45.3,29.62,SSW,202,4.9,4.9,91,0.37,,,1.22,VWS V14.01,2013-02-22 07:15:00,
2013-02-22 09:20:00,47.5,45.0,29.61,NNW,338,11.1,11.1,91,0.39,,,1.24,VWS V14.01,2013-02-22 07:20:00,
2013-02-22 09:25:00,47.3,45.1,29.62,West,270,6.9,9.6,92,0.41,,,1.26,VWS V14.01,2013-02-22 07:25:00,
2013-02-22 09:30:00,47.5,45.3,29.61,NW,315,9.1,10.0,92,0.41,,,1.26,VWS V14.01,2013-02-22 07:30:00,
2013-02-22 09:35:00,47.7,45.5,29.62,WNW,292,0.0,0.0,92,0.41,,,1.26,VWS V14.01,2013-02-22 07:35:00,
2013-02-22 09:40:00,47.8,45.5,29.63,WNW,292,4.4,4.6,92,0.43,,,1.28,VWS V14.01,2013-02-22 07:40:00,
2013-02-22 09:45:00,48.2,46.0,29.63,NNW,338,6.2,6.7,92,0.45,,,1.30,VWS V14.01,2013-02-22 07:45:00,
2013-02-22 09:50:00,48.2,46.0,29.62,NNW,338,2.6,12.5,92,0.43,,,1.30,VWS V14.01,2013-02-22 07:50:00,
2013-02-22 09:55:00,48.2,46.0,29.64,West,270,6.4,7.8,92,0.43,,,1.30,VWS V14.01,2013-02-22 07:55:00,
2013-02-22 10:00:00,48.2,46.0,29.63,NW,315,9.1,11.4,92,0.45,,,1.37,VWS V14.01,2013-02-22 08:00:00,
2013-02-22 10:06:00,48.2,46.0,29.64,NNW,338,6.9,10.7,92,0.41,,,1.41,VWS V14.01,2013-02-22 08:06:00,
2013-02-22 10:11:00,47.8,45.5,29.65,NNW,338,6.2,6.2,92,0.27,,,1.47,VWS V14.01,2013-02-22 08:11:00,
2013-02-22 10:16:00,48.2,46.0,29.65,NW,315,6.2,6.2,92,0.26,,,1.49,VWS V14.01,2013-02-22 08:16:00,
2013-02-22 10:21:00,47.8,45.5,29.65,West,270,5.8,6.4,92,0.45,,,1.67,VWS V14.01,2013-02-22 08:21:00,
2013-02-22 10:26:00,47.1,44.9,29.63,West,270,0.0,0.0,92,0.47,,,1.73,VWS V14.01,2013-02-22 08:26:00,
2013-02-22 10:31:00,46.9,44.7,29.63,West,270,0.0,0.0,92,0.51,,,1.77,VWS V14.01,2013-02-22 08:31:00,
2013-02-22 10:36:00,46.9,44.7,29.64,West,270,0.0,0.0,92,0.53,,,1.80,VWS V14.01,2013-02-22 08:36:00,
2013-02-22 10:41:00,46.9,44.7,29.63,West,270,0.0,0.0,92,0.53,,,1.81,VWS V14.01,2013-02-22 08:41:00,
2013-02-22 10:46:00,46.9,44.7,29.63,West,270,0.0,0.0,92,0.53,,,1.83,VWS V14.01,2013-02-22 08:46:00,
2013-02-22 10:51:00,46.9,44.7,29.63,West,270,0.0,0.0,92,0.55,,,1.85,VWS V14.01,2013-02-22 08:51:00,
2013-02-22 10:56:00,46.9,44.7,29.63,West,270,0.0,0.0,92,0.57,,,1.87,VWS V14.01,2013-02-22 08:56:00,
2013-02-22 11:01:00,46.9,44.7,29.64,West,270,0.0,0.0,92,0.53,,,1.89,VWS V14.01,2013-02-22 09:01:00,
2013-02-22 11:06:00,47.1,44.9,29.64,West,270,0.0,0.0,92,0.51,,,1.92,VWS V14.01,2013-02-22 09:06:00,
2013-02-22 11:11:00,47.1,44.9,29.63,West,270,0.0,0.0,92,0.45,,,1.92,VWS V14.01,2013-02-22 09:11:00,
2013-02-22 11:16:00,47.3,45.1,29.64,ESE,112,6.2,6.2,92,0.47,,,1.96,VWS V14.01,2013-02-22 09:16:00,
2013-02-22 11:21:00,47.3,45.1,29.65,East,90,4.2,5.5,92,0.28,,,1.96,VWS V14.01,2013-02-22 09:21:00,
2013-02-22 11:26:00,47.5,45.3,29.65,ESE,112,1.3,1.3,92,0.22,,,1.96,VWS V14.01,2013-02-22 09:26:00,
2013-02-22 11:31:00,47.7,45.7,29.64,SE,135,0.0,0.0,93,0.20,,,1.98,VWS V14.01,2013-02-22 09:31:00,
2013-02-22 11:36:00,47.8,45.8,29.64,ENE,68,0.0,0.0,93,0.18,,,1.98,VWS V14.01,2013-02-22 09:36:00,
2013-02-22 11:41:00,48.2,46.2,29.66,ENE,68,0.0,0.0,93,0.16,,,1.98,VWS V14.01,2013-02-22 09:41:00,
2013-02-22 11:46:00,48.2,46.2,29.67,SSE,158,0.0,3.5,93,0.14,,,1.98,VWS V14.01,2013-02-22 09:46:00,
2013-02-22 11:51:00,48.2,46.2,29.67,SSE,158,0.0,0.0,93,0.14,,,2.00,VWS V14.01,2013-02-22 09:51:00,
2013-02-22 11:57:00,48.2,46.2,29.67,SSE,158,0.0,0.0,93,0.12,,,2.00,VWS V14.01,2013-02-22 09:57:00,
2013-02-22 12:02:00,48.4,46.4,29.66,SSE,158,0.0,0.0,93,0.12,,,2.00,VWS V14.01,2013-02-22 10:02:00,
2013-02-22 12:07:00,48.4,46.4,29.65,SSE,158,0.0,0.0,93,0.08,,,2.00,VWS V14.01,2013-02-22 10:07:00,
2013-02-22 12:12:00,48.4,46.4,29.65,South,180,4.9,4.9,93,0.08,,,2.00,VWS V14.01,2013-02-22 10:12:00,
2013-02-22 12:17:00,48.7,46.7,29.65,South,180,0.0,0.0,93,0.04,,,2.00,VWS V14.01,2013-02-22 10:17:00,
2013-02-22 12:22:00,48.7,46.7,29.64,South,180,0.0,0.0,93,0.04,,,2.00,VWS V14.01,2013-02-22 10:22:00,
2013-02-22 12:27:00,48.7,46.7,29.65,South,180,0.0,0.0,93,0.04,,,2.00,VWS V14.01,2013-02-22 10:27:00,
2013-02-22 12:32:00,48.7,46.7,29.64,SSE,158,0.0,0.0,93,0.02,,,2.00,VWS V14.01,2013-02-22 10:32:00,
2013-02-22 12:37:00,48.7,46.7,29.64,SSE,158,0.0,0.0,93,0.02,,,2.00,VWS V14.01,2013-02-22 10:37:00,
2013-02-22 12:42:00,48.9,46.9,29.63,SSE,158,0.0,0.0,93,0.02,,,2.00,VWS V14.01,2013-02-22 10:42:00,
2013-02-22 12:47:00,48.9,46.9,29.63,SSE,158,0.0,0.0,93,0.02,,,2.00,VWS V14.01,2013-02-22 10:47:00,
2013-02-22 12:52:00,49.1,47.1,29.64,SSE,158,4.2,4.2,93,0.00,,,2.00,VWS V14.01,2013-02-22 10:52:00,
2013-02-22 12:57:00,49.3,47.3,29.64,SSE,158,0.0,0.0,93,0.00,,,2.00,VWS V14.01,2013-02-22 10:57:00,
2013-02-22 13:02:00,49.5,47.5,29.64,SSE,158,0.0,3.3,93,0.00,,,2.00,VWS V14.01,2013-02-22 11:02:00,
2013-02-22 13:07:00,49.3,47.6,29.64,SSE,158,4.6,4.6,94,0.00,,,2.00,VWS V14.01,2013-02-22 11:07:00,
2013-02-22 13:12:00,49.5,47.5,29.64,South,180,0.0,0.0,93,0.00,,,2.00,VWS V14.01,2013-02-22 11:12:00,
2013-02-22 13:17:00,49.5,47.5,29.64,SSW,202,0.0,0.0,93,0.00,,,2.00,VWS V14.01,2013-02-22 11:17:00,
2013-02-22 13:22:00,49.3,47.6,29.63,SSW,202,0.0,0.0,94,0.00,,,2.00,VWS V14.01,2013-02-22 11:22:00,
2013-02-22 13:27:00,49.5,47.8,29.64,SSW,202,2.4,2.4,94,0.00,,,2.00,VWS V14.01,2013-02-22 11:27:00,
2013-02-22 13:32:00,49.6,47.9,29.63,SSW,202,0.0,1.1,94,0.00,,,2.00,VWS V14.01,2013-02-22 11:32:00,
2013-02-22 13:38:00,50.0,48.3,29.63,SSW,202,0.0,0.0,94,0.00,,,2.00,VWS V14.01,2013-02-22 11:38:00,
2013-02-22 13:43:00,50.2,48.5,29.63,SSW,202,1.5,1.5,94,0.00,,,2.00,VWS V14.01,2013-02-22 11:43:00,
2013-02-22 13:48:00,50.4,48.4,29.63,SSW,202,0.0,0.0,93,0.00,,,2.00,VWS V14.01,2013-02-22 11:48:00,
2013-02-22 13:53:00,50.5,48.8,29.63,SSW,202,0.0,0.0,94,0.00,,,2.00,VWS V14.01,2013-02-22 11:53:00,
2013-02-22 13:58:00,50.7,49.0,29.63,SSW,202,0.0,0.0,94,0.00,,,2.00,VWS V14.01,2013-02-22 11:58:00,
2013-02-22 14:03:00,50.9,49.2,29.63,SSW,202,0.0,0.0,94,0.00,,,2.00,VWS V14.01,2013-02-22 12:03:00,
2013-02-22 14:08:00,51.4,49.4,29.62,SSW,202,0.0,0.0,93,0.00,,,2.00,VWS V14.01,2013-02-22 12:08:00,
2013-02-22 14:13:00,52.0,50.0,29.62,SSW,202,0.0,0.0,93,0.00,,,2.00,VWS V14.01,2013-02-22 12:13:00,
2013-02-22 14:18:00,52.7,50.7,29.62,South,180,0.0,0.0,93,0.00,,,2.00,VWS V14.01,2013-02-22 12:18:00,
2013-02-22 14:23:00,52.9,51.2,29.63,South,180,1.3,1.3,94,0.02,,,2.02,VWS V14.01,2013-02-22 12:23:00,
2013-02-22 14:28:00,53.1,51.1,29.62,South,180,0.8,0.8,93,0.02,,,2.02,VWS V14.01,2013-02-22 12:28:00,
2013-02-22 14:33:00,53.2,51.2,29.62,South,180,0.0,0.0,93,0.02,,,2.02,VWS V14.01,2013-02-22 12:33:00,
2013-02-22 14:38:00,53.2,51.2,29.62,South,180,0.8,0.8,93,0.02,,,2.02,VWS V14.01,2013-02-22 12:38:00,
2013-02-22 14:43:00,53.2,50.9,29.61,South,180,0.0,0.0,92,0.02,,,2.02,VWS V14.01,2013-02-22 12:43:00,
2013-02-22 14:48:00,54.0,51.7,29.61,South,180,0.0,0.0,92,0.02,,,2.02,VWS V14.01,2013-02-22 12:48:00,
2013-02-22 14:53:00,54.7,52.4,29.60,South,180,0.0,0.0,92,0.02,,,2.02,VWS V14.01,2013-02-22 12:53:00,
2013-02-22 14:58:00,54.9,52.3,29.60,South,180,0.0,0.0,91,0.02,,,2.02,VWS V14.01,2013-02-22 12:58:00,
2013-02-22 15:03:00,55.0,52.1,29.60,South,180,0.0,2.0,90,0.02,,,2.02,VWS V14.01,2013-02-22 13:03:00,
2013-02-22 15:08:00,55.4,51.9,29.61,South,180,0.0,0.0,88,0.02,,,2.02,VWS V14.01,2013-02-22 13:08:00,
2013-02-22 15:14:00,55.0,51.2,29.61,South,180,0.0,0.0,87,0.02,,,2.02,VWS V14.01,2013-02-22 13:14:00,
2013-02-22 15:19:00,55.4,51.2,29.60,South,180,0.0,0.0,86,0.02,,,2.02,VWS V14.01,2013-02-22 13:19:00,
2013-02-22 15:24:00,55.4,51.2,29.61,South,180,0.0,0.0,86,0.00,,,2.02,VWS V14.01,2013-02-22 13:24:00,
2013-02-22 15:29:00,55.4,50.9,29.61,South,180,0.8,0.8,85,0.00,,,2.02,VWS V14.01,2013-02-22 13:29:00,
2013-02-22 15:34:00,54.9,50.4,29.61,South,180,2.9,2.9,85,0.00,,,2.02,VWS V14.01,2013-02-22 13:34:00,
2013-02-22 15:39:00,54.5,49.7,29.61,SSE,158,3.5,3.5,84,0.00,,,2.02,VWS V14.01,2013-02-22 13:39:00,
2013-02-22 15:44:00,54.1,49.7,29.61,SSE,158,0.0,0.0,85,0.00,,,2.02,VWS V14.01,2013-02-22 13:44:00,
2013-02-22 15:49:00,54.1,49.7,29.61,SSE,158,3.1,3.1,85,0.00,,,2.02,VWS V14.01,2013-02-22 13:49:00,
2013-02-22 15:54:00,54.1,49.7,29.61,SSE,158,0.0,0.0,85,0.00,,,2.02,VWS V14.01,2013-02-22 13:54:00,
2013-02-22 15:59:00,54.0,49.6,29.61,SSE,158,5.1,5.1,85,0.00,,,2.02,VWS V14.01,2013-02-22 13:59:00,
2013-02-22 16:04:00,53.8,49.7,29.61,SSE,158,4.0,4.0,86,0.00,,,2.02,VWS V14.01,2013-02-22 14:04:00,
2013-02-22 16:09:00,53.8,49.7,29.62,SSE,158,0.0,1.1,86,0.00,,,2.02,VWS V14.01,2013-02-22 14:09:00,
2013-02-22 16:14:00,53.6,49.5,29.62,SSE,158,0.0,0.0,86,0.00,,,2.02,VWS V14.01,2013-02-22 14:14:00,
2013-02-22 16:19:00,53.6,49.8,29.63,SSE,158,0.0,0.0,87,0.00,,,2.02,VWS V14.01,2013-02-22 14:19:00,
2013-02-22 16:24:00,53.6,49.8,29.63,SSE,158,0.0,0.0,87,0.00,,,2.02,VWS V14.01,2013-02-22 14:24:00,
2013-02-22 16:29:00,53.6,49.5,29.63,SE,135,0.6,0.6,86,0.00,,,2.02,VWS V14.01,2013-02-22 14:29:00,
2013-02-22 16:34:00,53.4,49.3,29.63,SSE,158,0.0,0.0,86,0.00,,,2.02,VWS V14.01,2013-02-22 14:34:00,
2013-02-22 16:39:00,53.4,49.3,29.63,SSE,158,2.6,2.6,86,0.00,,,2.02,VWS V14.01,2013-02-22 14:39:00,
2013-02-22 16:44:00,53.4,49.3,29.63,SSE,158,0.0,0.0,86,0.00,,,2.02,VWS V14.01,2013-02-22 14:44:00,
2013-02-22 16:50:00,53.2,49.1,29.63,SSE,158,0.0,0.0,86,0.00,,,2.02,VWS V14.01,2013-02-22 14:50:00,
2013-02-22 16:55:00,53.2,49.1,29.63,ENE,68,0.4,0.4,86,0.00,,,2.02,VWS V14.01,2013-02-22 14:55:00,
2013-02-22 17:00:00,53.1,49.0,29.64,ENE,68,0.0,0.0,86,0.00,,,2.02,VWS V14.01,2013-02-22 15:00:00,
2013-02-22 17:05:00,52.9,48.5,29.64,ESE,112,0.0,4.0,85,0.00,,,2.02,VWS V14.01,2013-02-22 15:05:00,
2013-02-22 17:10:00,52.7,48.3,29.65,ESE,112,0.0,0.0,85,0.00,,,2.02,VWS V14.01,2013-02-22 15:10:00,
2013-02-22 17:15:00,52.7,48.0,29.65,ESE,112,4.2,4.2,84,0.00,,,2.02,VWS V14.01,2013-02-22 15:15:00,
2013-02-22 17:20:00,52.7,48.0,29.65,East,90,0.0,0.0,84,0.00,,,2.02,VWS V14.01,2013-02-22 15:20:00,
2013-02-22 17:25:00,52.5,47.5,29.65,NE,45,2.0,2.0,83,0.00,,,2.02,VWS V14.01,2013-02-22 15:25:00,
2013-02-22 17:30:00,52.7,47.7,29.65,NE,45,0.0,0.0,83,0.00,,,2.02,VWS V14.01,2013-02-22 15:30:00,
2013-02-22 17:35:00,52.7,47.3,29.65,NE,45,0.0,0.0,82,0.00,,,2.02,VWS V14.01,2013-02-22 15:35:00,
2013-02-22 17:40:00,52.5,47.1,29.65,NE,45,0.0,0.0,82,0.00,,,2.02,VWS V14.01,2013-02-22 15:40:00,
2013-02-22 17:45:00,52.5,47.5,29.65,ENE,68,0.0,0.0,83,0.00,,,2.02,VWS V14.01,2013-02-22 15:45:00,
2013-02-22 17:50:00,52.3,47.3,29.65,ENE,68,0.0,0.0,83,0.00,,,2.02,VWS V14.01,2013-02-22 15:50:00,
2013-02-22 17:55:00,52.3,47.3,29.66,ENE,68,0.0,0.0,83,0.00,,,2.02,VWS V14.01,2013-02-22 15:55:00,
2013-02-22 18:01:00,52.0,47.0,29.66,East,90,0.0,0.0,83,0.00,,,2.02,VWS V14.01,2013-02-22 16:01:00,
2013-02-22 18:06:00,52.0,47.0,29.66,East,90,0.0,0.0,83,0.00,,,2.02,VWS V14.01,2013-02-22 16:06:00,
2013-02-22 18:11:00,51.8,47.1,29.66,SE,135,0.0,0.0,84,0.00,,,2.02,VWS V14.01,2013-02-22 16:11:00,
2013-02-22 18:16:00,51.8,47.1,29.66,SE,135,0.0,0.0,84,0.00,,,2.02,VWS V14.01,2013-02-22 16:16:00,
2013-02-22 18:21:00,51.8,47.1,29.66,SSE,158,0.0,0.0,84,0.00,,,2.02,VWS V14.01,2013-02-22 16:21:00,
2013-02-22 18:26:00,51.4,47.0,29.66,SSE,158,3.3,3.3,85,0.00,,,2.02,VWS V14.01,2013-02-22 16:26:00,
2013-02-22 18:31:00,51.4,47.0,29.67,SSE,158,0.0,0.0,85,0.00,,,2.02,VWS V14.01,2013-02-22 16:31:00,
2013-02-22 18:36:00,51.4,47.0,29.67,SSE,158,2.2,2.2,85,0.00,,,2.02,VWS V14.01,2013-02-22 16:36:00,
2013-02-22 18:41:00,51.4,47.0,29.68,SSE,158,0.0,0.0,85,0.00,,,2.02,VWS V14.01,2013-02-22 16:41:00,
2013-02-22 18:46:00,51.4,47.0,29.68,SSE,158,0.8,0.8,85,0.00,,,2.02,VWS V14.01,2013-02-22 16:46:00,
2013-02-22 18:51:00,51.4,47.0,29.68,SSE,158,2.9,2.9,85,0.00,,,2.02,VWS V14.01,2013-02-22 16:51:00,
2013-02-22 18:56:00,51.3,46.9,29.68,SSE,158,0.0,0.0,85,0.00,,,2.02,VWS V14.01,2013-02-22 16:56:00,
2013-02-22 19:01:00,51.3,46.9,29.68,SSE,158,1.5,1.5,85,0.00,,,2.02,VWS V14.01,2013-02-22 17:01:00,
2013-02-22 19:06:00,51.3,46.9,29.68,SSE,158,3.1,3.1,85,0.00,,,2.02,VWS V14.01,2013-02-22 17:06:00,
2013-02-22 19:11:00,51.3,46.9,29.68,SSE,158,0.0,0.0,85,0.00,,,2.02,VWS V14.01,2013-02-22 17:11:00,
2013-02-22 19:16:00,51.3,46.9,29.68,SSE,158,2.9,2.9,85,0.00,,,2.02,VWS V14.01,2013-02-22 17:16:00,
2013-02-22 19:21:00,51.3,46.9,29.68,SSE,158,0.0,0.0,85,0.00,,,2.02,VWS V14.01,2013-02-22 17:21:00,
2013-02-22 19:26:00,51.4,47.0,29.69,SSE,158,0.0,0.0,85,0.00,,,2.02,VWS V14.01,2013-02-22 17:26:00,
2013-02-22 19:31:00,51.4,47.0,29.69,SSE,158,0.0,0.0,85,0.00,,,2.02,VWS V14.01,2013-02-22 17:31:00,
2013-02-22 19:36:00,51.4,47.0,29.70,SSE,158,1.7,1.7,85,0.00,,,2.02,VWS V14.01,2013-02-22 17:36:00,
2013-02-22 19:41:00,51.6,47.2,29.70,SSE,158,0.0,0.0,85,0.00,,,2.02,VWS V14.01,2013-02-22 17:41:00,
2013-02-22 19:46:00,51.6,47.2,29.71,SSE,158,0.0,0.0,85,0.00,,,2.02,VWS V14.01,2013-02-22 17:46:00,
2013-02-22 19:52:00,51.6,47.2,29.71,WSW,248,0.0,0.0,85,0.00,,,2.02,VWS V14.01,2013-02-22 17:52:00,
2013-02-22 19:57:00,51.4,47.3,29.71,West,270,0.0,0.0,86,0.00,,,2.02,VWS V14.01,2013-02-22 17:57:00,
2013-02-22 20:02:00,51.3,47.2,29.71,NW,315,3.5,5.8,86,0.00,,,2.02,VWS V14.01,2013-02-22 18:02:00,
2013-02-22 20:07:00,51.1,47.3,29.71,NW,315,4.0,4.0,87,0.04,,,2.06,VWS V14.01,2013-02-22 18:07:00,
2013-02-22 20:12:00,50.9,47.1,29.70,NE,45,5.5,6.2,87,0.10,,,2.12,VWS V14.01,2013-02-22 18:12:00,
2013-02-22 20:17:00,50.7,47.2,29.70,NE,45,0.0,0.0,88,0.10,,,2.12,VWS V14.01,2013-02-22 18:17:00,
2013-02-22 20:22:00,50.5,47.0,29.70,NE,45,0.0,0.0,88,0.10,,,2.12,VWS V14.01,2013-02-22 18:22:00,
2013-02-22 20:27:00,50.5,47.0,29.70,NNE,22,0.0,0.0,88,0.10,,,2.12,VWS V14.01,2013-02-22 18:27:00,
2013-02-22 20:32:00,50.4,47.0,29.70,NNE,22,0.0,0.0,88,0.10,,,2.12,VWS V14.01,2013-02-22 18:32:00,
2013-02-22 20:37:00,50.2,47.0,29.71,NNE,22,0.0,0.0,89,0.10,,,2.12,VWS V14.01,2013-02-22 18:37:00,
2013-02-22 20:42:00,50.2,47.0,29.71,NNE,22,0.0,0.0,89,0.10,,,2.12,VWS V14.01,2013-02-22 18:42:00,
2013-02-22 20:47:00,50.2,47.0,29.71,NNE,22,0.0,0.0,89,0.10,,,2.12,VWS V14.01,2013-02-22 18:47:00,
2013-02-22 20:52:00,50.2,47.0,29.71,NNE,22,1.3,1.3,89,0.10,,,2.12,VWS V14.01,2013-02-22 18:52:00,
2013-02-22 20:57:00,50.0,47.2,29.71,SSE,158,0.0,0.0,90,0.10,,,2.12,VWS V14.01,2013-02-22 18:57:00,
2013-02-22 21:02:00,50.0,47.2,29.71,SSE,158,0.0,0.0,90,0.10,,,2.12,VWS V14.01,2013-02-22 19:02:00,
2013-02-22 21:07:00,49.8,47.0,29.72,SSE,158,0.0,0.0,90,0.06,,,2.12,VWS V14.01,2013-02-22 19:07:00,
2013-02-22 21:12:00,49.6,46.8,29.72,SSE,158,0.0,0.0,90,0.00,,,2.12,VWS V14.01,2013-02-22 19:12:00,
2013-02-22 21:17:00,49.6,46.8,29.72,SSE,158,0.0,0.0,90,0.00,,,2.12,VWS V14.01,2013-02-22 19:17:00,
2013-02-22 21:22:00,49.6,46.8,29.72,SSE,158,0.0,0.0,90,0.00,,,2.12,VWS V14.01,2013-02-22 19:22:00,
2013-02-22 21:27:00,49.5,46.7,29.72,SSE,158,0.0,0.0,90,0.00,,,2.12,VWS V14.01,2013-02-22 19:27:00,
2013-02-22 21:32:00,49.5,47.0,29.73,SSE,158,0.0,0.0,91,0.00,,,2.12,VWS V14.01,2013-02-22 19:32:00,
2013-02-22 21:37:00,49.5,47.0,29.73,South,180,2.9,2.9,91,0.00,,,2.12,VWS V14.01,2013-02-22 19:37:00,
2013-02-22 21:43:00,49.5,47.0,29.73,SSW,202,0.8,0.8,91,0.00,,,2.12,VWS V14.01,2013-02-22 19:43:00,
2013-02-22 21:48:00,49.3,46.8,29.73,SSW,202,0.0,0.0,91,0.00,,,2.12,VWS V14.01,2013-02-22 19:48:00,
2013-02-22 21:53:00,49.3,46.8,29.73,SSW,202,0.0,0.0,91,0.00,,,2.12,VWS V14.01,2013-02-22 19:53:00,
2013-02-22 21:58:00,49.3,46.8,29.74,SSW,202,0.0,0.0,91,0.00,,,2.12,VWS V14.01,2013-02-22 19:58:00,
2013-02-22 22:03:00,49.1,46.5,29.74,SSW,202,0.0,0.0,91,0.00,,,2.12,VWS V14.01,2013-02-22 20:03:00,
2013-02-22 22:08:00,48.7,46.2,29.74,SSW,202,0.0,0.0,91,0.00,,,2.12,VWS V14.01,2013-02-22 20:08:00,
2013-02-22 22:13:00,48.7,46.2,29.75,SSW,202,0.0,0.0,91,0.00,,,2.12,VWS V14.01,2013-02-22 20:13:00,
2013-02-22 22:18:00,48.4,45.9,29.75,SSW,202,0.0,0.0,91,0.00,,,2.12,VWS V14.01,2013-02-22 20:18:00,
2013-02-22 22:23:00,48.4,45.9,29.75,SSW,202,0.0,0.0,91,0.00,,,2.12,VWS V14.01,2013-02-22 20:23:00,
2013-02-22 22:28:00,48.4,45.9,29.75,SSW,202,0.0,0.0,91,0.00,,,2.12,VWS V14.01,2013-02-22 20:28:00,
2013-02-22 22:33:00,48.2,45.7,29.75,SSW,202,0.0,0.0,91,0.00,,,2.12,VWS V14.01,2013-02-22 20:33:00,
2013-02-22 22:38:00,48.2,45.7,29.75,SSW,202,0.0,0.0,91,0.00,,,2.12,VWS V14.01,2013-02-22 20:38:00,
2013-02-22 22:43:00,48.2,45.7,29.76,SSW,202,0.0,0.0,91,0.00,,,2.12,VWS V14.01,2013-02-22 20:43:00,
2013-02-22 22:48:00,48.4,45.9,29.75,SSW,202,0.0,0.0,91,0.00,,,2.12,VWS V14.01,2013-02-22 20:48:00,
2013-02-22 22:53:00,48.4,45.9,29.75,SSW,202,0.0,0.0,91,0.00,,,2.12,VWS V14.01,2013-02-22 20:53:00,
2013-02-22 22:58:00,48.4,45.9,29.76,SSW,202,0.0,0.0,91,0.00,,,2.12,VWS V14.01,2013-02-22 20:58:00,
2013-02-22 23:03:00,48.4,45.9,29.75,SSW,202,0.0,0.0,91,0.00,,,2.12,VWS V14.01,2013-02-22 21:03:00,
2013-02-22 23:08:00,48.4,45.9,29.75,SSW,202,0.0,0.0,91,0.00,,,2.12,VWS V14.01,2013-02-22 21:08:00,
2013-02-22 23:13:00,48.2,45.7,29.75,SSW,202,0.0,0.0,91,0.00,,,2.12,VWS V14.01,2013-02-22 21:13:00,
2013-02-22 23:18:00,48.2,45.7,29.76,SSW,202,0.0,0.0,91,0.00,,,2.12,VWS V14.01,2013-02-22 21:18:00,
2013-02-22 23:23:00,48.2,45.7,29.76,SSW,202,0.0,0.0,91,0.00,,,2.12,VWS V14.01,2013-02-22 21:23:00,
2013-02-22 23:29:00,48.2,45.7,29.76,SSW,202,0.0,0.0,91,0.00,,,2.12,VWS V14.01,2013-02-22 21:29:00,
2013-02-22 23:34:00,47.8,45.3,29.76,SSW,202,0.0,0.0,91,0.00,,,2.12,VWS V14.01,2013-02-22 21:34:00,
2013-02-22 23:39:00,47.8,45.3,29.76,SSW,202,0.0,0.0,91,0.00,,,2.12,VWS V14.01,2013-02-22 21:39:00,
2013-02-22 23:44:00,47.8,45.3,29.76,SSW,202,0.0,0.0,91,0.00,,,2.12,VWS V14.01,2013-02-22 21:44:00,
2013-02-22 23:49:00,47.8,45.5,29.76,SSW,202,0.0,0.0,92,0.00,,,2.12,VWS V14.01,2013-02-22 21:49:00,
2013-02-22 23:54:00,47.7,45.5,29.76,SSW,202,0.0,0.0,92,0.00,,,2.12,VWS V14.01,2013-02-22 21:54:00,
2013-02-22 23:59:00,47.7,45.5,29.76,SSW,202,0.0,0.0,92,0.00,,,2.12,VWS V14.01,2013-02-22 21:59:00,